Time;durP1;ratioP1;P1;durP2;ratioP2;P2;SDS_P1;SDS_P2;PMS_P1;PMS_P2;Temp;Humidity;BMP_temperature;BMP_pressure;BME280_temperature;BME280_humidity;BME280_pressure;Samples;Min_cycle;Max_cycle;Signal;HPM_P1;HPM_P2
2021/01/10 00:00:13;;;;;;;27.10;13.80;;;1.80;91.50;;;;;;5110482;28;20043;-74
2021/01/10 00:02:39;;;;;;;24.63;12.77;;;1.80;91.60;;;;;;5109764;28;20076;-75
2021/01/10 00:05:07;;;;;;;26.17;13.43;;;1.80;91.60;;;;;;5110366;28;20039;-75
2021/01/10 00:07:33;;;;;;;25.67;13.40;;;1.80;91.40;;;;;;5074960;28;20039;-74
2021/01/10 00:09:59;;;;;;;28.47;15.20;;;1.80;91.60;;;;;;5091489;28;20031;-74
2021/01/10 00:12:26;;;;;;;29.67;15.60;;;1.80;91.70;;;;;;5092043;28;20057;-74
2021/01/10 00:14:52;;;;;;;29.90;15.87;;;1.80;91.30;;;;;;5109262;28;20058;-74
2021/01/10 00:17:19;;;;;;;30.47;15.97;;;1.70;91.40;;;;;;5110308;28;20568;-75
2021/01/10 00:19:45;;;;;;;30.17;15.90;;;1.70;91.70;;;;;;5110154;28;20130;-75
2021/01/10 00:22:16;;;;;;;32.53;16.53;;;1.70;91.30;;;;;;5091307;28;20559;-74
2021/01/10 00:24:42;;;;;;;32.03;16.70;;;1.60;91.30;;;;;;5091855;28;20097;-74
2021/01/10 00:27:14;;;;;;;31.57;16.10;;;1.70;91.60;;;;;;5109624;28;20039;-74
2021/01/10 00:29:44;;;;;;;34.50;16.00;;;1.70;91.40;;;;;;5110190;28;20027;-75
2021/01/10 00:32:10;;;;;;;33.00;17.10;;;1.70;91.40;;;;;;5090890;28;20059;-75
2021/01/10 00:34:35;;;;;;;36.53;17.33;;;1.70;91.40;;;;;;5109882;28;20059;-75
2021/01/10 00:37:07;;;;;;;35.93;16.37;;;1.70;91.50;;;;;;5110209;28;20062;-74
2021/01/10 00:39:33;;;;;;;35.37;16.53;;;1.70;91.30;;;;;;5109514;28;20122;-75
2021/01/10 00:42:02;;;;;;;34.80;16.57;;;1.60;91.40;;;;;;5109480;28;20115;-75
2021/01/10 00:44:28;;;;;;;35.13;16.37;;;1.60;91.30;;;;;;5090743;28;20038;-74
2021/01/10 00:46:54;;;;;;;35.47;16.47;;;1.60;91.40;;;;;;5091566;28;20040;-75
2021/01/10 00:49:20;;;;;;;35.97;17.53;;;1.60;91.40;;;;;;5091611;28;20518;-75
2021/01/10 00:51:49;;;;;;;33.63;16.03;;;1.60;91.20;;;;;;5090644;28;20048;-75
2021/01/10 00:54:15;;;;;;;35.40;16.27;;;1.50;91.40;;;;;;5091338;28;20110;-75
2021/01/10 00:56:41;;;;;;;34.90;16.90;;;1.50;91.40;;;;;;5091127;28;20032;-75
2021/01/10 00:59:07;;;;;;;37.17;16.47;;;1.50;91.30;;;;;;5074784;28;20557;-75
2021/01/10 01:01:33;;;;;;;34.93;16.40;;;1.50;91.30;;;;;;5074771;28;20032;-75
2021/01/10 01:03:59;;;;;;;33.70;16.47;;;1.40;91.40;;;;;;5109389;28;20023;-74
2021/01/10 01:06:24;;;;;;;34.73;16.07;;;1.50;91.50;;;;;;5109709;28;20028;-75
2021/01/10 01:08:51;;;;;;;36.83;16.50;;;1.50;91.50;;;;;;5090751;28;20064;-74
2021/01/10 01:11:32;;;;;;;40.67;15.83;;;1.50;91.40;;;;;;5109726;28;20043;-74
2021/01/10 01:13:58;;;;;;;36.92;16.17;;;1.50;91.40;;;;;;5090839;28;20442;-74
2021/01/10 01:16:24;;;;;;;34.73;15.37;;;1.50;91.30;;;;;;5109352;28;20024;-74
2021/01/10 01:18:49;;;;;;;36.83;16.37;;;1.50;91.30;;;;;;5110261;28;20448;-75
2021/01/10 01:21:16;;;;;;;35.03;16.40;;;1.50;91.30;;;;;;5095008;28;20111;-74
2021/01/10 01:23:42;;;;;;;32.97;16.13;;;1.40;91.30;;;;;;5113400;28;20105;-74
2021/01/10 01:26:16;;;;;;;34.67;16.40;;;1.40;91.20;;;;;;5113063;28;20456;-74
2021/01/10 01:28:43;;;;;;;32.70;16.07;;;1.40;91.20;;;;;;5094996;28;20070;-74
2021/01/10 01:31:13;;;;;;;31.87;15.37;;;1.40;91.20;;;;;;5113545;28;20069;-75
2021/01/10 01:33:39;;;;;;;29.90;15.00;;;1.40;91.10;;;;;;5112994;28;20043;-75
2021/01/10 01:36:09;;;;;;;30.37;15.37;;;1.30;90.80;;;;;;5113239;28;20031;-75
2021/01/10 01:38:35;;;;;;;30.90;14.90;;;1.20;90.90;;;;;;5112949;28;20077;-74
2021/01/10 01:41:01;;;;;;;29.67;14.80;;;1.10;90.90;;;;;;5113182;28;20054;-75
2021/01/10 01:43:27;;;;;;;32.17;15.23;;;1.10;91.30;;;;;;5112422;28;20040;-75
2021/01/10 01:45:53;;;;;;;32.93;16.07;;;1.10;91.40;;;;;;5113592;28;20024;-72
2021/01/10 01:48:19;;;;;;;31.70;16.27;;;1.10;91.40;;;;;;5113137;28;20051;-72
2021/01/10 01:50:45;;;;;;;31.80;16.03;;;1.10;91.30;;;;;;5112606;28;20096;-71
2021/01/10 01:53:11;;;;;;;31.47;16.23;;;1.10;91.10;;;;;;5112634;28;20028;-71
2021/01/10 01:55:36;;;;;;;31.83;15.30;;;1.00;91.30;;;;;;5093981;28;20055;-68
2021/01/10 01:58:08;;;;;;;32.90;16.40;;;1.00;91.30;;;;;;5095010;28;20119;-72
2021/01/10 02:00:33;;;;;;;29.57;15.20;;;1.00;91.30;;;;;;5113094;28;20502;-71
2021/01/10 02:02:59;;;;;;;28.10;14.47;;;1.00;91.20;;;;;;5112010;28;20032;-71
2021/01/10 02:05:28;;;;;;;29.90;14.87;;;0.90;91.30;;;;;;5112770;28;20028;-71
2021/01/10 02:08:10;;;;;;;33.30;15.63;;;0.90;91.40;;;;;;5112335;28;20119;-72
2021/01/10 02:10:40;;;;;;;30.03;15.30;;;0.80;91.30;;;;;;5094390;28;20043;-72
2021/01/10 02:13:12;;;;;;;32.08;15.65;;;0.90;91.50;;;;;;5111840;28;20035;-72
2021/01/10 02:15:40;;;;;;;30.53;15.53;;;0.90;91.50;;;;;;5112500;28;20396;-72
2021/01/10 02:18:07;;;;;;;32.47;15.47;;;0.90;91.60;;;;;;5112068;28;20039;-72
2021/01/10 02:20:36;;;;;;;31.80;16.40;;;0.90;91.30;;;;;;5112526;28;20027;-72
2021/01/10 02:23:06;;;;;;;32.43;15.77;;;0.90;91.40;;;;;;5093930;28;20047;-72
2021/01/10 02:25:34;;;;;;;34.90;17.00;;;0.90;91.30;;;;;;5111806;28;20417;-72
2021/01/10 02:28:01;;;;;;;30.53;15.30;;;0.80;91.30;;;;;;5094350;28;20535;-72
2021/01/10 02:30:29;;;;;;;32.40;16.07;;;0.70;91.50;;;;;;5092625;28;20123;-71
2021/01/10 02:33:01;;;;;;;32.03;15.27;;;0.80;91.60;;;;;;5112285;27;20481;-72
2021/01/10 02:35:28;;;;;;;31.53;15.97;;;0.80;91.60;;;;;;5111415;28;20344;-72
2021/01/10 02:38:12;;;;;;;31.80;15.83;;;0.90;91.50;;;;;;5112315;28;20115;-72
2021/01/10 02:41:19;;;;;;;33.27;15.87;;;0.90;91.40;;;;;;5111753;28;20431;-72
2021/01/10 02:44:08;;;;;;;30.00;14.97;;;0.80;91.30;;;;;;5110639;28;20119;-72
2021/01/10 02:46:35;;;;;;;31.57;15.23;;;0.80;91.10;;;;;;5097789;28;20050;-72
2021/01/10 02:49:02;;;;;;;30.13;15.60;;;0.70;91.20;;;;;;5112054;28;20031;-72
2021/01/10 02:51:28;;;;;;;32.47;15.90;;;0.60;91.20;;;;;;5111864;28;20515;-72
2021/01/10 02:53:54;;;;;;;33.47;15.63;;;0.60;91.40;;;;;;5111297;28;20039;-71
2021/01/10 02:56:19;;;;;;;35.57;16.57;;;0.60;91.40;;;;;;5076580;28;20046;-72
2021/01/10 02:58:46;;;;;;;32.53;16.13;;;0.60;91.50;;;;;;5111612;28;20056;-71
2021/01/10 03:01:14;;;;;;;32.63;16.40;;;0.60;91.40;;;;;;5093679;28;20096;-71
2021/01/10 03:03:41;;;;;;;32.57;16.03;;;0.60;91.40;;;;;;5111369;28;20047;-71
2021/01/10 03:06:07;;;;;;;34.30;17.53;;;0.50;91.30;;;;;;5110842;28;20044;-71
2021/01/10 03:08:34;;;;;;;34.33;15.93;;;0.50;91.40;;;;;;5111522;28;20490;-72
2021/01/10 03:11:01;;;;;;;32.63;15.13;;;0.50;91.60;;;;;;5111587;28;20530;-71
2021/01/10 03:13:27;;;;;;;30.93;15.43;;;0.50;91.50;;;;;;5075427;28;20096;-71
2021/01/10 03:15:52;;;;;;;34.63;17.20;;;0.60;91.60;;;;;;5111112;28;20485;-71
2021/01/10 03:18:23;;;;;;;30.07;15.67;;;0.60;91.70;;;;;;5110871;28;20060;-71
2021/01/10 03:20:49;;;;;;;36.10;17.85;;;0.60;91.70;;;;;;5111524;28;20035;-71
2021/01/10 03:23:15;;;;;;;35.87;16.53;;;0.60;91.60;;;;;;5110471;28;20062;-71
2021/01/10 03:25:41;;;;;;;32.17;15.87;;;0.60;91.60;;;;;;5093055;28;20172;-71
2021/01/10 03:28:07;;;;;;;34.27;17.47;;;0.70;91.60;;;;;;5111231;28;20032;-71
2021/01/10 03:30:33;;;;;;;34.27;17.97;;;0.70;91.70;;;;;;5110901;28;20384;-71
2021/01/10 03:33:00;;;;;;;32.63;17.23;;;0.70;91.80;;;;;;5092441;28;20042;-72
2021/01/10 03:35:26;;;;;;;36.80;18.07;;;0.80;91.80;;;;;;5110503;28;20031;-71
2021/01/10 03:37:51;;;;;;;34.97;16.97;;;0.70;91.60;;;;;;5092746;28;20039;-72
2021/01/10 03:40:17;;;;;;;36.20;17.73;;;0.80;91.70;;;;;;5059254;28;20412;-71
2021/01/10 03:42:43;;;;;;;36.17;17.87;;;0.80;91.70;;;;;;5109875;28;20089;-71
2021/01/10 03:45:11;;;;;;;32.43;16.97;;;0.80;91.70;;;;;;5092538;28;20036;-71
2021/01/10 03:47:36;;;;;;;34.00;17.27;;;0.90;91.80;;;;;;5110564;28;20024;-72
2021/01/10 03:50:06;;;;;;;34.90;17.93;;;0.90;91.80;;;;;;5110768;28;20139;-71
2021/01/10 03:52:32;;;;;;;36.13;18.25;;;0.90;91.70;;;;;;5110535;28;20035;-71
2021/01/10 03:54:58;;;;;;;33.87;17.73;;;0.90;91.80;;;;;;5092121;28;20030;-71
2021/01/10 03:57:24;;;;;;;35.10;17.00;;;1.00;91.80;;;;;;5092685;28;20412;-71
2021/01/10 03:59:49;;;;;;;33.97;16.90;;;1.00;91.80;;;;;;5110336;28;20131;-71
2021/01/10 04:02:15;;;;;;;35.67;18.27;;;1.00;91.70;;;;;;5110429;28;20039;-71
2021/01/10 04:04:41;;;;;;;32.70;16.60;;;1.10;91.70;;;;;;5092159;28;20035;-71
2021/01/10 04:07:07;;;;;;;36.97;17.23;;;1.10;91.70;;;;;;5110143;28;20917;-71
2021/01/10 04:09:34;;;;;;;30.40;15.93;;;1.20;91.70;;;;;;5092587;28;20040;-71
2021/01/10 04:12:00;;;;;;;30.10;15.63;;;1.10;91.50;;;;;;5110118;28;20536;-71
2021/01/10 04:14:26;;;;;;;34.40;16.70;;;1.10;91.50;;;;;;5109795;28;20042;-71
2021/01/10 04:16:53;;;;;;;33.63;17.40;;;1.10;91.60;;;;;;5110631;28;20043;-72
2021/01/10 04:19:19;;;;;;;39.00;17.43;;;1.10;91.60;;;;;;5110038;28;20028;-71
2021/01/10 04:21:45;;;;;;;34.20;17.47;;;1.10;91.50;;;;;;5091896;28;20049;-71
2021/01/10 04:24:10;;;;;;;33.53;16.90;;;1.10;91.50;;;;;;5110406;28;20126;-71
2021/01/10 04:26:46;;;;;;;36.37;17.40;;;1.10;91.50;;;;;;5109599;28;20500;-71
2021/01/10 04:29:13;;;;;;;35.37;17.70;;;1.10;91.50;;;;;;5110066;28;20042;-71
2021/01/10 04:31:39;;;;;;;34.10;18.13;;;1.00;91.60;;;;;;5109474;28;20059;-71
2021/01/10 04:34:05;;;;;;;36.60;18.33;;;1.00;91.50;;;;;;5110066;28;20491;-72
2021/01/10 04:36:31;;;;;;;35.47;17.97;;;1.00;91.40;;;;;;5091277;28;20047;-71
2021/01/10 04:38:57;;;;;;;38.23;17.77;;;1.00;91.50;;;;;;5110052;28;20404;-72
2021/01/10 04:41:24;;;;;;;37.90;18.33;;;1.00;91.50;;;;;;5092012;28;20039;-72
2021/01/10 04:43:55;;;;;;;34.23;17.10;;;1.00;91.70;;;;;;5109342;28;20097;-71
2021/01/10 04:46:22;;;;;;;37.10;17.98;;;1.00;91.70;;;;;;5091714;28;20099;-71
2021/01/10 04:48:52;;;;;;;36.70;17.57;;;1.00;91.70;;;;;;5109507;28;20044;-72
2021/01/10 04:51:19;;;;;;;37.03;18.13;;;1.00;91.80;;;;;;5110164;28;20035;-72
2021/01/10 04:53:48;;;;;;;37.10;18.20;;;1.00;91.90;;;;;;5108898;28;20516;-72
2021/01/10 04:56:17;;;;;;;34.50;18.13;;;1.00;91.80;;;;;;5109717;28;20031;-72
2021/01/10 04:58:43;;;;;;;37.40;17.83;;;1.10;91.80;;;;;;5110086;28;20039;-72
2021/01/10 05:01:19;;;;;;;35.97;18.07;;;1.10;91.90;;;;;;5109599;28;20492;-72
2021/01/10 05:03:45;;;;;;;39.93;20.00;;;1.10;91.80;;;;;;5109661;28;20047;-71
2021/01/10 05:06:11;;;;;;;36.63;18.50;;;1.10;91.80;;;;;;5109149;28;20134;-71
2021/01/10 05:08:39;;;;;;;38.70;18.13;;;1.00;91.50;;;;;;5109681;28;20042;-72
2021/01/10 05:11:05;;;;;;;40.57;18.73;;;1.00;91.50;;;;;;5109336;28;20043;-72
2021/01/10 05:13:30;;;;;;;39.67;18.73;;;1.00;91.50;;;;;;5109221;28;20032;-72
2021/01/10 05:15:57;;;;;;;37.50;18.87;;;0.90;91.50;;;;;;5109563;28;20039;-72
2021/01/10 05:18:24;;;;;;;40.97;19.30;;;0.80;91.60;;;;;;5091183;28;20084;-71
2021/01/10 05:20:54;;;;;;;42.43;19.50;;;0.80;91.70;;;;;;5109972;28;20042;-71
2021/01/10 05:23:26;;;;;;;43.28;20.40;;;0.80;91.90;;;;;;5108951;28;20023;-70
2021/01/10 05:26:05;;;;;;;40.60;19.43;;;0.80;91.80;;;;;;5109527;28;20077;-72
2021/01/10 05:28:32;;;;;;;41.30;19.57;;;0.70;91.80;;;;;;5108884;28;20500;-72
2021/01/10 05:31:01;;;;;;;43.17;19.47;;;0.70;91.70;;;;;;5109573;28;20044;-72
2021/01/10 05:33:27;;;;;;;46.27;20.87;;;0.70;91.80;;;;;;5090619;28;20040;-71
2021/01/10 05:35:57;;;;;;;44.30;19.70;;;0.70;91.80;;;;;;5109444;28;20403;-71
2021/01/10 05:38:31;;;;;;;42.83;20.07;;;0.60;91.80;;;;;;5108968;28;20153;-72
2021/01/10 05:40:59;;;;;;;42.37;19.27;;;0.60;91.90;;;;;;5109570;28;20043;-71
2021/01/10 05:43:26;;;;;;;42.43;20.17;;;0.60;92.10;;;;;;5074198;28;20142;-71
2021/01/10 05:45:53;;;;;;;46.43;20.80;;;0.60;92.10;;;;;;5090791;28;20043;-71
2021/01/10 05:48:19;;;;;;;44.33;21.20;;;0.70;92.20;;;;;;5109575;28;20058;-71
2021/01/10 05:50:47;;;;;;;44.50;20.20;;;0.80;92.00;;;;;;5109008;28;20046;-71
2021/01/10 05:53:18;;;;;;;42.77;20.73;;;0.80;92.10;;;;;;5109073;28;20032;-71
2021/01/10 05:56:03;;;;;;;46.80;21.33;;;0.80;92.10;;;;;;5108817;28;20031;-71
2021/01/10 05:58:32;;;;;;;45.43;21.70;;;0.80;92.00;;;;;;5109361;28;20058;-71
2021/01/10 06:01:12;;;;;;;46.23;20.53;;;0.90;92.00;;;;;;5108934;28;20039;-71
2021/01/10 06:03:38;;;;;;;44.93;20.67;;;0.80;91.80;;;;;;5109217;28;20032;-71
2021/01/10 06:06:05;;;;;;;43.57;20.27;;;0.80;91.80;;;;;;5109716;28;20039;-71
2021/01/10 06:08:35;;;;;;;43.67;20.07;;;0.80;91.80;;;;;;5078183;28;20494;-71
2021/01/10 06:11:20;;;;;;;41.63;18.87;;;0.80;92.00;;;;;;5094104;28;20043;-71
2021/01/10 06:14:01;;;;;;;40.57;19.07;;;0.80;92.00;;;;;;5094517;28;20172;-72
2021/01/10 06:16:35;;;;;;;46.70;20.77;;;0.80;92.00;;;;;;5112619;28;20051;-72
2021/01/10 06:19:04;;;;;;;44.83;20.90;;;0.80;92.00;;;;;;5113019;28;20404;-71
2021/01/10 06:21:31;;;;;;;46.97;20.17;;;0.80;92.00;;;;;;5112464;28;20231;-72
2021/01/10 06:23:59;;;;;;;45.77;20.77;;;0.90;92.00;;;;;;5112445;28;20108;-72
2021/01/10 06:26:40;;;;;;;41.60;19.83;;;0.90;92.10;;;;;;5111973;28;20051;-71
2021/01/10 06:29:08;;;;;;;43.77;19.77;;;0.90;92.10;;;;;;5112426;28;20040;-72
2021/01/10 06:31:36;;;;;;;46.07;20.83;;;1.00;92.10;;;;;;5093552;28;20165;-72
2021/01/10 06:34:03;;;;;;;41.83;20.33;;;1.00;92.00;;;;;;5094165;28;20492;-72
2021/01/10 06:36:34;;;;;;;44.43;21.43;;;1.00;92.00;;;;;;5111665;28;20271;-71
2021/01/10 06:39:11;;;;;;;47.13;20.35;;;1.00;92.00;;;;;;5112192;28;20077;-71
2021/01/10 06:41:59;;;;;;;43.67;19.90;;;1.00;92.10;;;;;;5111840;28;20096;-72
2021/01/10 06:44:25;;;;;;;41.87;20.07;;;1.10;92.10;;;;;;5112101;28;20035;-72
2021/01/10 06:46:52;;;;;;;46.43;20.20;;;1.10;92.00;;;;;;5111946;28;20051;-72
2021/01/10 06:49:20;;;;;;;46.27;20.83;;;1.10;91.80;;;;;;5112124;28;20027;-72
2021/01/10 06:51:48;;;;;;;47.83;20.07;;;1.10;91.80;;;;;;5111264;28;20135;-72
2021/01/10 06:54:14;;;;;;;44.03;19.50;;;1.00;91.70;;;;;;5111689;28;20036;-72
2021/01/10 06:56:50;;;;;;;43.47;20.47;;;1.00;91.70;;;;;;5112100;28;20105;-72
2021/01/10 06:59:18;;;;;;;45.57;20.17;;;1.00;91.90;;;;;;5111631;28;20059;-72
2021/01/10 07:01:52;;;;;;;40.77;18.97;;;1.00;92.10;;;;;;5111601;28;20032;-72
2021/01/10 07:04:23;;;;;;;44.93;19.40;;;1.00;92.10;;;;;;5111378;28;20028;-72
2021/01/10 07:06:50;;;;;;;41.58;18.58;;;0.90;92.10;;;;;;5094311;28;20032;-72
2021/01/10 07:09:17;;;;;;;43.07;18.87;;;1.00;91.90;;;;;;5111214;28;20035;-72
2021/01/10 07:11:44;;;;;;;46.60;19.27;;;1.00;92.00;;;;;;5093053;28;20035;-71
2021/01/10 07:14:13;;;;;;;44.33;18.10;;;0.90;92.00;;;;;;5111868;28;20035;-71
2021/01/10 07:16:40;;;;;;;41.50;18.90;;;1.00;92.00;;;;;;5092729;28;20036;-72
2021/01/10 07:19:07;;;;;;;38.23;18.43;;;1.00;92.00;;;;;;5093462;28;20123;-72
2021/01/10 07:21:44;;;;;;;47.57;19.67;;;1.00;91.80;;;;;;5111035;28;20028;-71
2021/01/10 07:24:12;;;;;;;41.90;19.63;;;0.90;91.90;;;;;;5111514;28;20046;-72
2021/01/10 07:26:44;;;;;;;44.30;19.27;;;0.90;91.90;;;;;;5111063;28;20493;-71
2021/01/10 07:29:29;;;;;;;43.23;18.87;;;0.90;92.10;;;;;;5092810;28;20457;-71
2021/01/10 07:32:02;;;;;;;41.67;17.93;;;0.90;92.20;;;;;;5110705;28;20039;-72
2021/01/10 07:34:29;;;;;;;40.27;18.20;;;0.90;92.20;;;;;;5092787;28;20040;-72
2021/01/10 07:37:04;;;;;;;39.83;18.47;;;0.90;92.10;;;;;;5110881;28;20041;-72
2021/01/10 07:39:31;;;;;;;39.07;18.10;;;0.90;92.20;;;;;;5111054;28;20235;-72
2021/01/10 07:42:12;;;;;;;41.33;17.47;;;0.90;92.30;;;;;;5110562;28;20035;-72
2021/01/10 07:44:48;;;;;;;40.55;17.58;;;1.00;92.30;;;;;;5111588;28;20036;-75
2021/01/10 07:47:14;;;;;;;40.53;18.00;;;1.00;92.30;;;;;;5093329;28;20035;-75
2021/01/10 07:49:53;;;;;;;41.03;18.63;;;1.10;92.30;;;;;;5092635;28;20393;-75
2021/01/10 07:52:41;;;;;;;37.80;17.07;;;1.10;92.30;;;;;;5110115;28;20036;-75
2021/01/10 07:55:20;;;;;;;42.63;17.73;;;1.20;92.20;;;;;;5110069;28;20035;-75
2021/01/10 07:58:00;;;;;;;42.60;17.13;;;1.20;92.30;;;;;;5109505;28;20127;-75
2021/01/10 08:00:34;;;;;;;37.17;16.92;;;1.30;92.20;;;;;;5109899;27;20032;-75
2021/01/10 08:03:02;;;;;;;38.80;19.00;;;1.30;92.30;;;;;;5108523;27;20024;-75
2021/01/10 08:05:32;;;;;;;38.70;16.43;;;1.30;92.30;;;;;;5110334;28;20040;-74
2021/01/10 08:08:06;;;;;;;35.33;16.07;;;1.30;92.50;;;;;;5090741;28;20036;-74
2021/01/10 08:11:08;;;;;;;37.60;15.60;;;1.30;92.20;;;;;;5093359;28;20040;-75
2021/01/10 08:13:40;;;;;;;35.40;16.77;;;1.40;92.30;;;;;;5065430;28;20028;-75
2021/01/10 08:16:11;;;;;;;30.60;14.53;;;1.40;92.30;;;;;;5103371;28;20024;-74
2021/01/10 08:18:42;;;;;;;35.40;16.03;;;1.40;92.20;;;;;;5102303;27;20032;-75
2021/01/10 08:21:11;;;;;;;34.22;15.93;;;1.50;92.20;;;;;;5115862;27;20392;-75
2021/01/10 08:23:39;;;;;;;37.73;18.40;;;1.50;92.30;;;;;;5101099;27;20039;-75
2021/01/10 08:26:13;;;;;;;35.13;15.73;;;1.50;92.30;;;;;;5092070;28;20028;-75
2021/01/10 08:28:44;;;;;;;33.97;15.13;;;1.60;92.40;;;;;;5109064;28;20031;-75
2021/01/10 08:31:12;;;;;;;35.33;15.40;;;1.70;92.30;;;;;;5109319;28;20555;-75
2021/01/10 08:33:38;;;;;;;33.60;14.87;;;1.80;92.40;;;;;;5090986;28;20032;-74
2021/01/10 08:36:22;;;;;;;34.67;16.13;;;1.80;92.50;;;;;;5109772;28;20039;-74
2021/01/10 08:38:52;;;;;;;31.30;15.60;;;1.90;92.40;;;;;;5109918;28;20131;-75
2021/01/10 08:41:27;;;;;;;31.50;14.63;;;2.00;92.60;;;;;;5092169;28;20446;-75
2021/01/10 08:43:59;;;;;;;31.30;14.23;;;2.20;92.50;;;;;;5109105;28;20422;-73
2021/01/10 08:46:26;;;;;;;28.40;13.30;;;2.30;92.30;;;;;;5088757;28;20043;-75
2021/01/10 08:48:52;;;;;;;29.30;14.20;;;2.40;92.40;;;;;;5107809;27;20514;-74
2021/01/10 08:51:35;;;;;;;34.17;16.30;;;2.40;92.20;;;;;;5110621;28;20126;-74
2021/01/10 08:54:07;;;;;;;30.23;16.13;;;2.50;92.30;;;;;;5094122;28;20484;-74
2021/01/10 08:56:34;;;;;;;33.60;15.87;;;2.70;92.40;;;;;;5108261;28;20555;-74
2021/01/10 08:59:01;;;;;;;38.07;20.80;;;2.80;92.30;;;;;;5110701;28;20042;-74
2021/01/10 09:01:27;;;;;;;25.33;13.40;;;3.10;92.70;;;;;;5110100;28;20062;-75
2021/01/10 09:04:04;;;;;;;26.60;13.97;;;3.30;92.30;;;;;;5092151;28;20070;-75
2021/01/10 09:07:01;;;;;;;30.00;14.40;;;3.40;91.70;;;;;;5094331;28;20040;-74
2021/01/10 09:09:47;;;;;;;27.07;13.07;;;3.40;91.60;;;;;;5109855;28;20448;-75
2021/01/10 09:12:21;;;;;;;25.77;13.83;;;3.30;91.50;;;;;;5110329;28;20634;-74
2021/01/10 09:14:54;;;;;;;26.60;13.10;;;3.40;91.40;;;;;;5109274;28;20036;-74
2021/01/10 09:17:48;;;;;;;27.93;13.30;;;3.50;91.60;;;;;;5107431;28;20047;-75
2021/01/10 09:20:19;;;;;;;23.70;12.00;;;3.90;92.10;;;;;;5106991;27;20057;-75
2021/01/10 09:22:45;;;;;;;23.73;11.60;;;4.40;91.40;;;;;;5107939;28;20082;-74
2021/01/10 09:25:20;;;;;;;23.03;11.97;;;4.70;90.30;;;;;;5110055;28;20042;-73
2021/01/10 09:28:08;;;;;;;23.23;11.93;;;4.90;90.50;;;;;;5092287;28;20059;-75
2021/01/10 09:30:36;;;;;;;21.80;11.67;;;5.20;90.70;;;;;;5103758;28;20542;-74
2021/01/10 09:33:04;;;;;;;23.07;11.40;;;5.60;90.60;;;;;;5110444;28;20539;-74
2021/01/10 09:35:42;;;;;;;19.33;10.80;;;5.80;88.80;;;;;;5109971;28;20385;-75
2021/01/10 09:38:31;;;;;;;20.97;11.07;;;5.80;88.10;;;;;;5107297;28;20036;-75
2021/01/10 09:41:07;;;;;;;19.47;10.33;;;5.70;87.80;;;;;;5111013;28;20027;-75
2021/01/10 09:43:43;;;;;;;19.00;10.43;;;5.30;88.40;;;;;;5114057;28;20480;-74
2021/01/10 09:46:34;;;;;;;19.27;10.10;;;5.10;88.80;;;;;;5096075;28;20031;-75
2021/01/10 09:49:05;;;;;;;22.60;12.07;;;5.00;88.70;;;;;;5095939;28;20038;-75
2021/01/10 09:51:38;;;;;;;;;;;4.90;89.60;;;;;;5090800;28;20086;-74
2021/01/10 09:54:20;;;;;;;20.13;10.70;;;4.90;89.70;;;;;;5115362;27;20324;-74
2021/01/10 09:56:56;;;;;;;22.87;11.23;;;4.80;89.00;;;;;;5109340;28;20036;-74
2021/01/10 09:59:40;;;;;;;21.47;11.20;;;4.80;89.60;;;;;;5094075;28;20036;-75
2021/01/10 10:02:12;;;;;;;21.47;10.20;;;4.70;88.50;;;;;;5093110;28;20516;-74
2021/01/10 10:04:39;;;;;;;21.13;10.30;;;4.60;89.00;;;;;;5109484;28;20123;-76
2021/01/10 10:07:05;;;;;;;20.10;10.10;;;4.60;88.00;;;;;;5093372;28;20489;-74
2021/01/10 10:09:54;;;;;;;19.87;10.53;;;4.40;87.60;;;;;;5107492;27;20111;-75
2021/01/10 10:12:21;;;;;;;25.13;12.87;;;4.30;88.30;;;;;;5111177;28;20050;-74
2021/01/10 10:15:08;;;;;;;36.57;16.17;;;4.30;89.00;;;;;;5113442;28;20050;-74
2021/01/10 10:17:37;;;;;;;26.23;12.50;;;4.30;88.60;;;;;;5113688;28;20373;-73
2021/01/10 10:20:08;;;;;;;21.30;10.83;;;4.30;88.30;;;;;;5113957;28;20377;-73
2021/01/10 10:22:36;;;;;;;22.63;11.13;;;4.20;87.80;;;;;;5095019;28;20084;-73
2021/01/10 10:25:12;;;;;;;20.23;10.93;;;4.20;88.40;;;;;;5085715;28;20036;-73
2021/01/10 10:27:54;;;;;;;23.40;11.27;;;4.30;88.90;;;;;;5084274;27;20031;-75
2021/01/10 10:30:20;;;;;;;22.23;11.33;;;4.40;88.90;;;;;;5112531;27;20712;-74
2021/01/10 10:32:46;;;;;;;20.90;10.83;;;4.50;88.40;;;;;;5109879;27;20032;-75
2021/01/10 10:35:12;;;;;;;21.70;10.87;;;4.50;87.70;;;;;;5112949;27;20043;-75
2021/01/10 10:37:37;;;;;;;24.50;10.87;;;4.60;88.30;;;;;;5089139;28;20089;-74
2021/01/10 10:40:04;;;;;;;22.17;11.50;;;4.60;88.20;;;;;;5113156;27;20046;-75
2021/01/10 10:42:30;;;;;;;24.70;12.23;;;4.60;87.60;;;;;;5087456;28;20027;-74
2021/01/10 10:44:56;;;;;;;23.07;11.40;;;4.70;87.80;;;;;;5124683;27;20051;-75
2021/01/10 10:47:21;;;;;;;23.57;11.77;;;4.80;88.70;;;;;;5092968;28;20105;-71
2021/01/10 10:49:47;;;;;;;22.90;11.40;;;5.00;88.70;;;;;;5088118;28;20400;-69
2021/01/10 10:52:14;;;;;;;22.37;11.87;;;5.10;87.20;;;;;;5117780;27;20040;-70
2021/01/10 10:54:40;;;;;;;21.77;10.90;;;5.20;87.30;;;;;;5112747;27;20442;-70
2021/01/10 10:57:07;;;;;;;22.40;11.07;;;5.30;85.90;;;;;;5084566;27;20404;-69
2021/01/10 10:59:34;;;;;;;22.37;11.90;;;5.30;85.80;;;;;;5084254;28;20030;-69
2021/01/10 11:01:59;;;;;;;22.10;10.87;;;5.30;85.80;;;;;;5090441;28;20408;-68
2021/01/10 11:04:25;;;;;;;21.73;11.00;;;5.30;85.80;;;;;;5112411;28;20028;-70
2021/01/10 11:06:51;;;;;;;23.63;12.10;;;5.40;86.60;;;;;;5094766;28;20043;-70
2021/01/10 11:09:17;;;;;;;21.50;11.17;;;5.60;86.90;;;;;;5094363;28;20035;-70
2021/01/10 11:11:45;;;;;;;26.27;11.87;;;5.70;85.80;;;;;;5112737;28;20458;-71
2021/01/10 11:14:12;;;;;;;26.30;13.13;;;5.90;85.10;;;;;;5094246;28;20047;-69
2021/01/10 11:16:41;;;;;;;23.10;12.20;;;5.80;83.30;;;;;;5112805;28;20035;-70
2021/01/10 11:19:08;;;;;;;23.60;12.20;;;5.60;83.90;;;;;;5094467;28;20070;-70
2021/01/10 11:21:39;;;;;;;22.63;11.30;;;5.50;83.60;;;;;;5111703;28;20046;-69
2021/01/10 11:24:06;;;;;;;25.33;12.23;;;5.40;84.30;;;;;;5112835;28;20035;-70
2021/01/10 11:26:33;;;;;;;23.93;11.93;;;5.50;84.50;;;;;;5111897;28;20100;-70
2021/01/10 11:28:59;;;;;;;24.47;12.37;;;5.60;84.20;;;;;;5112548;28;20047;-70
2021/01/10 11:31:26;;;;;;;23.97;11.97;;;5.60;83.90;;;;;;5112659;28;20040;-70
2021/01/10 11:33:52;;;;;;;23.87;11.30;;;5.70;85.00;;;;;;5111758;28;20051;-69
2021/01/10 11:36:20;;;;;;;23.17;11.80;;;5.90;84.80;;;;;;5112240;27;20158;-69
2021/01/10 11:38:53;;;;;;;27.03;13.13;;;6.20;84.30;;;;;;5112003;28;20036;-70
2021/01/10 11:41:21;;;;;;;25.30;11.87;;;6.40;82.20;;;;;;5112521;28;20067;-70
2021/01/10 11:43:48;;;;;;;23.97;11.53;;;6.40;82.90;;;;;;5111541;28;20126;-70
2021/01/10 11:46:14;;;;;;;24.10;11.93;;;6.40;82.80;;;;;;5112092;28;20123;-69
2021/01/10 11:48:41;;;;;;;25.23;11.97;;;6.50;82.10;;;;;;5076674;28;20040;-70
2021/01/10 11:51:08;;;;;;;28.13;12.83;;;6.40;82.10;;;;;;5112202;28;20036;-70
2021/01/10 11:53:34;;;;;;;26.47;12.80;;;6.50;83.80;;;;;;5111668;28;20080;-70
2021/01/10 11:56:03;;;;;;;27.17;12.50;;;6.70;83.10;;;;;;5111482;28;20036;-69
2021/01/10 11:58:28;;;;;;;25.27;12.00;;;6.70;81.50;;;;;;5112142;28;20035;-71
2021/01/10 12:00:55;;;;;;;21.93;11.83;;;6.70;82.00;;;;;;5093779;28;20035;-70
2021/01/10 12:03:22;;;;;;;24.03;12.00;;;6.60;81.90;;;;;;5093033;28;20043;-70
2021/01/10 12:05:49;;;;;;;24.37;11.80;;;6.60;80.60;;;;;;5111297;28;20036;-69
2021/01/10 12:08:16;;;;;;;22.80;11.60;;;6.40;81.00;;;;;;5111408;28;20101;-70
2021/01/10 12:10:42;;;;;;;24.77;12.47;;;6.30;81.30;;;;;;5111810;28;20047;-69
2021/01/10 12:13:08;;;;;;;24.93;12.30;;;6.20;80.50;;;;;;5109111;27;20031;-69
2021/01/10 12:15:35;;;;;;;22.77;11.83;;;6.20;81.30;;;;;;5100336;28;20047;-74
2021/01/10 12:18:05;;;;;;;27.07;12.80;;;6.30;81.60;;;;;;5105244;27;20050;-75
2021/01/10 12:20:35;;;;;;;25.23;12.02;;;6.20;80.90;;;;;;5106587;27;20090;-75
2021/01/10 12:23:01;;;;;;;28.30;13.02;;;6.10;81.10;;;;;;5110715;27;20382;-73
2021/01/10 12:25:27;;;;;;;24.73;12.70;;;6.20;81.60;;;;;;5063199;27;20050;-75
2021/01/10 12:27:54;;;;;;;23.80;12.10;;;6.30;82.10;;;;;;5096592;28;20047;-74
2021/01/10 12:30:22;;;;;;;23.77;11.73;;;6.40;81.60;;;;;;5087403;27;20036;-75
2021/01/10 12:32:49;;;;;;;27.53;12.30;;;6.30;80.30;;;;;;5119439;27;20789;-75
2021/01/10 12:35:16;;;;;;;26.77;12.50;;;6.20;81.40;;;;;;5104972;27;20035;-75
2021/01/10 12:37:43;;;;;;;25.00;12.03;;;6.10;79.80;;;;;;5085557;27;20032;-76
2021/01/10 12:40:10;;;;;;;24.67;12.70;;;5.80;80.50;;;;;;5110843;27;20110;-74
2021/01/10 12:42:37;;;;;;;25.67;12.30;;;5.70;80.00;;;;;;5086985;28;20661;-74
2021/01/10 12:45:04;;;;;;;30.73;13.30;;;5.60;80.40;;;;;;5105826;28;20051;-75
2021/01/10 12:47:30;;;;;;;25.93;12.33;;;5.40;81.00;;;;;;5091302;28;20063;-73
2021/01/10 12:49:56;;;;;;;25.97;12.10;;;5.30;81.20;;;;;;5105437;27;20066;-75